Weather observations for the past three days for
Caldwell - Caldwell Industrial Airport
Metric (Imperial)
Date Time (mdt) Wind (kph) Vis. (km) Weather Sky Cond. Temperature (ºC) Relative Humidity Wind Chill (°C) Heat Index (°C) Pressure Precipitation (cm)
Air Dwpt 6 hour altimeter (cm) sea level (mb) 1 hr 3 hr 6 hr
Max. Min.
31 05:56 E 7 16.09 Fair CLR 10 0 13.3 8.3 50% 9 76.23 1015.3
31 03:56 NE 6 16.09 Fair CLR 10 3.9 66% 76.23 1015.2
31 02:56 E 6 16.09 Fair CLR 11.1 5 66% 76.2 1015.0
31 01:56 Calm 16.09 Fair CLR 12.2 4.4 59% 76.2 1015.0
31 00:56 N 9 16.09 Fair CLR 10.6 3.3 61% 76.23 1015.5
30 23:56 Calm 16.09 Fair CLR 13.3 3.9 25.6 12.8 53% 76.23 1015.2
30 22:56 Calm 16.09 Fair CLR 16.1 3.3 43% 76.23 1015.3
30 21:56 Calm 16.09 Fair CLR 17.8 1.1 33% 76.2 1015.1
30 20:56 Calm 16.09 Fair CLR 20 0 26% 76.17 1014.7
30 19:56 Calm 16.09 Fair CLR 22.8 0 22% 76.17 1014.5
30 18:56 NW 9 16.09 Fair CLR 25 -1.1 18% 25 76.2 1014.6
30 17:56 N 15 16.09 Fair CLR 25.6 -0.6 25.6 18.9 18% 25 76.23 1015.0
30 16:56 NW 9 16.09 Fair CLR 24.4 -0.6 19% 25 76.28 1015.6
30 15:56 NW 11 16.09 Fair CLR 24.4 0 20% 25 76.33 1016.2
30 14:56 W 13 16.09 Fair CLR 22.8 1.7 25% 76.4 1017.2
30 13:56 NW 9 16.09 Fair CLR 21.1 1.7 28% 76.43 1017.9
30 12:56 W 11 16.09 NULL NULL 20 1.7 30% 76.48 1018.6
30 11:56 W 15 12.87 Fair CLR 18.9 2.8 18.9 10.6 34% 76.53 1019.1
30 10:56 W 11 16.09 Fair CLR 16.1 3.3 43% 76.53 1019.4
30 09:56 W 13 16.09 Fair CLR 15 2.8 44% 76.53 1019.2
30 07:56 Calm 16.09 Fair CLR 10.6 3.3 61% 76.5 1018.6
30 06:56 W 7 16.09 Fair CLR 11.1 2.8 57% 76.43 1017.4
30 05:56 W 19 16.09 Fair CLR 11.7 2.8 17.8 11.7 55% 76.38 1016.6
30 04:56 W 11 16.09 Fair CLR 12.2 2.2 51% 76.35 1016.2
30 03:56 W 15 16.09 Fair CLR 13.3 2.2 47% 76.33 1015.8
30 02:56 W 24 16.09 Fair CLR 13.9 1.7 44% 76.28 1015.3
30 01:56 W 20 16.09 Fair CLR 15 2.8 44% 76.23 1014.7
30 00:56 W 26 16.09 Fair CLR 16.1 2.8 41% 76.17 1013.7
29 23:56 W 30 8.05 Fair with Haze CLR 17.2 1.7 30 17.2 35% 76.1 1012.9
29 22:56 W 24 16.09 Fair CLR 18.9 1.7 32% 76.05 1012.1
29 21:56 W 22 16.09 Fair CLR 21.1 3.3 31% 75.97 1011.0
29 20:56 W 26 G 35 16.09 Fair CLR 22.8 3.3 28% 75.87 1009.6
29 19:56 W 20 11.27 Fair CLR 26.1 -1.1 17% 25 75.77 1008.2
29 18:56 NW 17 G 30 16.09 Fair CLR 28.9 -0.6 15% 27 75.74 1007.9
29 17:56 W 28 16.09 Fair CLR 30 3.3 30.6 26.1 18% 28 75.77 1007.8
29 16:56 W 20 16.09 Fair CLR 30.6 3.3 18% 29 75.79 1008.2
29 15:56 Calm 16.09 Fair CLR 30 4.4 20% 28 75.84 1009.0
29 14:56 SE 9 16.09 Fair CLR 28.9 5 22% 27 75.92 1010.0
29 13:56 NW 9 14.48 Fair CLR 28.3 5.6 24% 27 75.97 1010.5
29 12:56 W 9 16.09 Fair CLR 27.2 5.6 25% 26 76.02 1011.4
29 11:56 Vrbl 9 16.09 Fair CLR 26.1 6.7 26.7 16.1 29% 26 76.05 1011.8
29 10:56 Vrbl 9 16.09 Fair CLR 25.6 7.2 31% 26 76.07 1012.2
29 09:56 Calm 16.09 Fair CLR 23.9 11.1 45% 25 76.07 1012.2
29 08:56 E 9 16.09 Fair CLR 20.6 11.1 55% 76.07 1012.4
29 07:56 Calm 16.09 Fair CLR 17.2 10.6 65% 76.07 1012.4
29 06:56 E 13 16.09 Fair CLR 17.2 10 63% 76.02 1011.7
29 05:56 E 17 16.09 Fair CLR 18.9 10.6 23.3 18.3 59% 76 1011.3
29 04:56 SE 15 16.09 Fair CLR 18.9 10.6 59% 75.97 1010.8
29 03:56 E 11 16.09 Fair CLR 19.4 10.6 57% 75.97 1010.7
29 02:56 E 15 16.09 Fair CLR 20.6 10.6 53% 75.92 1010.1
29 01:56 E 22 16.09 Fair CLR 21.7 11.1 51% 75.92 1010.1
29 00:56 E 20 16.09 Fair CLR 22.2 11.1 50% 75.92 1010.1
28 23:56 E 19 G 30 16.09 Fair CLR 23.3 11.1 28.3 22.2 46% 75.92 1010.0
28 22:56 E 19 16.09 Fair CLR 23.3 11.1 46% 75.9 1010.0
28 21:56 E 13 16.09 Fair CLR 23.3 11.7 48% 75.9 1010.0
28 20:56 SE 11 16.09 Fair CLR 24.4 11.1 43% 26 75.87 1009.5
28 19:56 NE 7 16.09 Fair CLR 25.6 13.9 48% 26 75.84 1009.1
28 18:56 NE 6 16.09 Fair CLR 27.8 11.1 35% 27 75.87 1009.3
28 17:56 Calm 16.09 Fair CLR 27.8 11.1 28.9 23.3 35% 27 75.9 1009.8
28 16:56 Calm 16.09 Fair CLR 28.9 9.4 30% 28 75.97 1010.5
28 15:56 E 7 16.09 Fair CLR 28.3 9.4 31% 27 76.02 1011.2
28 14:56 E 13 16.09 Fair CLR 27.8 10 33% 27 76.07 1012.0
28 13:56 NE 9 16.09 Fair CLR 25.6 10 37% 26 76.1 1012.5
28 12:56 Calm 16.09 Fair CLR 25.6 8.3 33% 26 76.17 1013.4
28 11:56 Calm 16.09 Fair CLR 23.9 7.8 23.9 19.4 36% 25 76.2 1013.8
28 10:56 Calm 16.09 Fair CLR 22.2 8.3 41% 76.2 1013.9
28 09:56 NE 6 16.09 Fair CLR 21.1 8.3 44% 76.17 1013.4
28 08:56 NW 6 16.09 Fair CLR 20 8.9 49% 76.15 1013.1
28 07:56 W 13 16.09 Fair CLR 20 8.3 47% 76.12 1012.4
28 06:56 SW 9 14.48 Fair CLR 20 9.4 51% 76.07 1011.8
Date Time (mdt) Wind (kph) Vis. (km) Weather Sky Cond. Air Dwpt Max. Min. Relative Humidity Wind Chill (°C) Heat Index (°C) altimeter (cm) sea level (mb) 1 hr 3 hr 6 hr
6 hour
Temperature (ºC) Pressure Precipitation (cm)